Time;durP1;ratioP1;P1;durP2;ratioP2;P2;SDS_P1;SDS_P2;PMS_P1;PMS_P2;Temp;Humidity;BMP_temperature;BMP_pressure;BME280_temperature;BME280_humidity;BME280_pressure;Samples;Min_cycle;Max_cycle;Signal;HPM_P1;HPM_P2
2023/03/05 00:00:11;;;;;;;0.65;0.30;;;3.80;99.90;;;;;;5038616;28;20037;-73
2023/03/05 00:02:37;;;;;;;1.75;0.43;;;3.80;99.90;;;;;;5054325;28;20091;-73
2023/03/05 00:05:02;;;;;;;2.25;0.22;;;3.90;99.90;;;;;;5003065;28;20045;-73
2023/03/05 00:07:28;;;;;;;0.50;0.30;;;3.80;99.90;;;;;;5052632;28;21837;-73
2023/03/05 00:09:54;;;;;;;3.60;0.47;;;3.80;99.90;;;;;;5069474;28;20426;-73
2023/03/05 00:12:19;;;;;;;2.92;1.15;;;3.90;99.90;;;;;;5019044;28;20037;-73
2023/03/05 00:14:45;;;;;;;2.50;0.38;;;3.80;99.90;;;;;;5053493;28;20433;-73
2023/03/05 00:17:10;;;;;;;4.97;0.47;;;3.80;99.90;;;;;;5055032;28;20461;-73
2023/03/05 00:19:36;;;;;;;2.38;0.60;;;3.90;99.90;;;;;;5000848;28;20038;-74
2023/03/05 00:22:01;;;;;;;2.10;0.43;;;3.90;99.90;;;;;;5021579;28;20037;-74
2023/03/05 00:24:27;;;;;;;2.42;0.57;;;3.90;99.90;;;;;;5021158;28;20087;-73
2023/03/05 00:26:53;;;;;;;2.67;0.47;;;3.90;99.90;;;;;;5021776;28;20037;-73
2023/03/05 00:29:20;;;;;;;0.93;0.30;;;3.90;99.90;;;;;;5020718;28;20136;-74
2023/03/05 00:31:47;;;;;;;0.45;0.40;;;3.90;99.90;;;;;;5055335;28;20404;-74
2023/03/05 00:34:15;;;;;;;3.45;0.40;;;3.80;99.90;;;;;;5052729;28;20035;-74
2023/03/05 00:36:43;;;;;;;0.75;0.57;;;3.80;99.90;;;;;;5020154;28;20042;-74
2023/03/05 00:39:10;;;;;;;1.20;0.17;;;3.80;99.90;;;;;;5018605;28;20037;-74
2023/03/05 00:41:36;;;;;;;0.98;0.17;;;3.80;99.90;;;;;;5055148;28;20042;-74
2023/03/05 00:44:01;;;;;;;0.88;0.30;;;3.80;99.90;;;;;;5018260;28;20033;-73
2023/03/05 00:46:28;;;;;;;0.75;0.25;;;3.80;99.90;;;;;;5039504;28;20037;-73
2023/03/05 00:48:54;;;;;;;1.42;0.40;;;3.80;99.90;;;;;;5019339;28;20037;-74
2023/03/05 00:51:20;;;;;;;4.93;0.45;;;3.80;99.90;;;;;;5020321;28;20042;-73
2023/03/05 00:53:46;;;;;;;0.63;0.10;;;3.80;99.90;;;;;;5036100;28;20037;-74
2023/03/05 00:56:12;;;;;;;1.35;0.25;;;3.80;99.90;;;;;;5019195;28;20466;-73
2023/03/05 00:58:38;;;;;;;0.38;0.20;;;3.70;99.90;;;;;;5004591;28;20041;-74
2023/03/05 01:01:05;;;;;;;0.55;0.20;;;3.70;99.90;;;;;;5054129;28;20213;-73
2023/03/05 01:03:32;;;;;;;0.43;0.10;;;3.70;99.90;;;;;;5049589;28;20486;-73
2023/03/05 01:05:58;;;;;;;1.13;0.13;;;3.70;99.90;;;;;;5052755;28;20431;-74
2023/03/05 01:08:23;;;;;;;0.47;0.10;;;3.70;99.90;;;;;;5037389;28;20033;-73
2023/03/05 01:10:49;;;;;;;0.65;0.30;;;3.70;99.90;;;;;;5018487;28;20098;-73
2023/03/05 01:13:15;;;;;;;0.10;0.10;;;3.70;99.90;;;;;;5022083;28;20659;-73
2023/03/05 01:15:40;;;;;;;0.55;0.30;;;3.70;99.90;;;;;;5019104;28;20053;-73
2023/03/05 01:18:06;;;;;;;0.25;0.10;;;3.70;99.90;;;;;;5021379;28;20029;-74
2023/03/05 01:20:32;;;;;;;0.73;0.28;;;3.70;99.90;;;;;;5019972;28;20503;-74
2023/03/05 01:23:00;;;;;;;0.30;0.20;;;3.70;99.90;;;;;;5054595;28;20033;-73
2023/03/05 01:25:27;;;;;;;0.17;0.15;;;3.70;99.90;;;;;;5018914;28;20038;-74
2023/03/05 01:27:53;;;;;;;0.20;0.13;;;3.70;99.90;;;;;;5051772;28;20033;-73
2023/03/05 01:30:18;;;;;;;2.63;0.55;;;3.70;99.90;;;;;;5052241;28;20046;-74
2023/03/05 01:32:44;;;;;;;0.60;0.25;;;3.70;99.90;;;;;;5051675;28;20048;-73
2023/03/05 01:35:16;;;;;;;2.10;0.50;;;3.70;99.90;;;;;;5019390;28;20394;-73
2023/03/05 01:37:42;;;;;;;0.55;0.32;;;3.60;99.90;;;;;;5020065;28;20095;-74
2023/03/05 01:40:10;;;;;;;3.15;0.65;;;3.60;99.90;;;;;;5019858;28;20053;-73
2023/03/05 01:42:36;;;;;;;0.95;0.38;;;3.60;99.90;;;;;;5051985;28;20106;-74
2023/03/05 01:45:05;;;;;;;0.85;0.22;;;3.60;99.90;;;;;;5021130;28;20034;-73
2023/03/05 01:47:30;;;;;;;0.80;0.40;;;3.60;99.90;;;;;;5051642;28;20551;-73
2023/03/05 01:49:56;;;;;;;1.38;0.40;;;3.60;99.90;;;;;;5020406;28;20124;-73
2023/03/05 01:52:23;;;;;;;3.20;0.22;;;3.60;99.90;;;;;;5001881;28;20080;-74
2023/03/05 01:54:53;;;;;;;0.90;0.20;;;3.60;99.90;;;;;;5027287;28;20053;-73
2023/03/05 01:57:20;;;;;;;2.38;0.65;;;3.60;99.90;;;;;;5050686;28;20069;-74
2023/03/05 01:59:49;;;;;;;0.28;0.17;;;3.70;99.90;;;;;;5054699;28;20056;-74
2023/03/05 02:02:16;;;;;;;1.95;0.60;;;3.60;99.90;;;;;;5012312;28;20376;-74
2023/03/05 02:04:50;;;;;;;0.50;0.32;;;3.70;99.90;;;;;;5053731;28;20076;-74
2023/03/05 02:07:16;;;;;;;0.38;0.15;;;3.60;99.90;;;;;;5003557;28;20072;-74
2023/03/05 02:09:42;;;;;;;1.05;0.45;;;3.60;99.90;;;;;;5002666;28;20077;-74
2023/03/05 02:12:10;;;;;;;1.27;0.40;;;3.60;99.90;;;;;;5052228;28;20081;-74
2023/03/05 02:14:36;;;;;;;0.30;0.20;;;3.60;99.90;;;;;;5032712;28;20060;-74
2023/03/05 02:17:02;;;;;;;1.45;0.43;;;3.50;99.90;;;;;;5052267;28;20048;-74
2023/03/05 02:19:27;;;;;;;1.42;0.40;;;3.50;99.90;;;;;;5050125;28;20046;-74
2023/03/05 02:21:53;;;;;;;1.40;0.40;;;3.50;99.90;;;;;;5019624;28;20046;-74
2023/03/05 02:24:39;;;;;;;2.60;0.68;;;3.50;99.90;;;;;;5053477;28;20189;-74
2023/03/05 02:27:05;;;;;;;1.35;0.40;;;3.50;99.90;;;;;;5023330;28;20081;-74
2023/03/05 02:29:32;;;;;;;4.68;0.50;;;3.40;99.90;;;;;;5023716;28;20679;-74
2023/03/05 02:31:59;;;;;;;0.52;0.30;;;3.40;99.90;;;;;;5024174;28;20064;-74
2023/03/05 02:34:25;;;;;;;2.28;0.30;;;3.40;99.90;;;;;;5055175;28;20559;-74
2023/03/05 02:36:51;;;;;;;1.00;0.40;;;3.40;99.90;;;;;;5007557;28;20152;-74
2023/03/05 02:39:16;;;;;;;0.82;0.28;;;3.30;99.90;;;;;;5024204;28;20072;-74
2023/03/05 02:41:42;;;;;;;1.75;0.35;;;3.30;99.90;;;;;;5039819;28;20465;-74
2023/03/05 02:44:08;;;;;;;0.30;0.30;;;3.30;99.90;;;;;;5055555;28;20410;-74
2023/03/05 02:46:34;;;;;;;0.88;0.40;;;3.30;99.90;;;;;;5025529;28;20050;-74
2023/03/05 02:49:00;;;;;;;0.68;0.25;;;3.30;99.90;;;;;;5055333;28;20049;-73
2023/03/05 02:51:25;;;;;;;0.82;0.35;;;3.30;99.90;;;;;;5051660;28;21150;-74
2023/03/05 02:53:51;;;;;;;0.60;0.32;;;3.30;99.90;;;;;;5019935;28;20041;-74
2023/03/05 02:56:16;;;;;;;1.95;0.40;;;3.30;99.90;;;;;;5053700;28;20132;-74
2023/03/05 02:58:42;;;;;;;5.20;0.35;;;3.30;99.90;;;;;;5022320;28;20057;-74
2023/03/05 03:01:09;;;;;;;3.38;0.40;;;3.30;99.90;;;;;;5020583;28;20443;-74
2023/03/05 03:03:35;;;;;;;2.20;0.20;;;3.30;99.90;;;;;;5007988;28;20052;-74
2023/03/05 03:06:00;;;;;;;0.65;0.30;;;3.30;99.90;;;;;;5002774;28;20523;-74
2023/03/05 03:08:26;;;;;;;0.85;0.20;;;3.30;99.90;;;;;;5055183;28;20087;-73
2023/03/05 03:10:52;;;;;;;0.57;0.30;;;3.30;99.90;;;;;;5021866;28;20530;-74
2023/03/05 03:13:17;;;;;;;0.75;0.28;;;3.30;99.90;;;;;;5022774;28;20098;-74
2023/03/05 03:15:43;;;;;;;1.80;0.60;;;3.30;99.90;;;;;;5006109;28;20515;-74
2023/03/05 03:18:09;;;;;;;0.77;0.38;;;3.30;99.90;;;;;;5000617;28;20041;-74
2023/03/05 03:20:38;;;;;;;0.93;0.32;;;3.30;99.90;;;;;;5038722;28;20380;-74
2023/03/05 03:23:04;;;;;;;1.67;0.47;;;3.30;99.90;;;;;;5052842;28;20466;-74
2023/03/05 03:25:30;;;;;;;0.68;0.25;;;3.30;99.90;;;;;;5020946;28;20159;-73
2023/03/05 03:27:55;;;;;;;1.23;0.70;;;3.30;99.90;;;;;;5054863;28;20437;-74
2023/03/05 03:30:21;;;;;;;1.75;0.40;;;3.30;99.90;;;;;;5022732;28;20052;-73
2023/03/05 03:32:47;;;;;;;2.35;0.35;;;3.30;99.90;;;;;;5055502;28;20041;-74
2023/03/05 03:35:12;;;;;;;1.08;0.28;;;3.30;99.90;;;;;;5020539;28;20033;-74
2023/03/05 03:37:38;;;;;;;0.30;0.20;;;3.30;99.90;;;;;;5070047;28;20493;-74
2023/03/05 03:40:05;;;;;;;3.00;0.40;;;3.30;99.90;;;;;;5019968;28;20403;-74
2023/03/05 03:42:31;;;;;;;0.70;0.32;;;3.40;99.90;;;;;;5006833;28;20040;-74
2023/03/05 03:44:56;;;;;;;5.40;0.75;;;3.30;99.90;;;;;;5019530;28;20033;-74
2023/03/05 03:47:22;;;;;;;2.67;0.65;;;3.30;99.90;;;;;;5056579;28;20029;-73
2023/03/05 03:49:48;;;;;;;3.40;1.20;;;3.30;99.90;;;;;;5038503;28;20076;-74
2023/03/05 03:52:14;;;;;;;3.55;0.50;;;3.30;99.90;;;;;;5022524;28;20076;-74
2023/03/05 03:54:39;;;;;;;0.55;0.30;;;3.30;99.90;;;;;;5051470;28;20073;-74
2023/03/05 03:57:05;;;;;;;1.40;0.25;;;3.30;99.90;;;;;;5054865;28;20437;-74
2023/03/05 03:59:31;;;;;;;1.77;0.55;;;3.30;99.90;;;;;;5055306;28;20079;-74
2023/03/05 04:01:56;;;;;;;3.22;0.50;;;3.30;99.90;;;;;;5053276;28;20033;-74
2023/03/05 04:04:22;;;;;;;0.00;0.00;;;3.30;99.90;;;;;;5006075;28;20629;-74
2023/03/05 04:06:47;;;;;;;1.17;0.45;;;3.30;99.90;;;;;;5021546;28;20041;-74
2023/03/05 04:09:13;;;;;;;0.88;0.40;;;3.30;99.90;;;;;;5056162;28;20041;-74
2023/03/05 04:11:39;;;;;;;1.85;0.30;;;3.30;99.90;;;;;;5006506;28;20025;-74
2023/03/05 04:14:05;;;;;;;2.65;0.20;;;3.30;99.90;;;;;;5022337;28;20033;-74
2023/03/05 04:16:31;;;;;;;0.57;0.40;;;3.30;99.90;;;;;;5029244;28;20030;-74
2023/03/05 04:18:56;;;;;;;1.80;0.45;;;3.30;99.90;;;;;;5022621;28;20080;-74
2023/03/05 04:21:22;;;;;;;0.65;0.10;;;3.30;99.90;;;;;;5017235;28;20034;-74
2023/03/05 04:23:49;;;;;;;1.60;0.50;;;3.30;99.90;;;;;;5022728;28;20092;-74
2023/03/05 04:26:14;;;;;;;0.47;0.30;;;3.30;99.90;;;;;;5050991;28;20553;-74
2023/03/05 04:28:40;;;;;;;0.63;0.28;;;3.30;99.90;;;;;;5022747;28;20042;-74
2023/03/05 04:31:05;;;;;;;1.17;0.38;;;3.30;99.90;;;;;;5019075;28;20546;-73
2023/03/05 04:33:31;;;;;;;0.20;0.20;;;3.30;99.90;;;;;;4997516;28;20041;-73
2023/03/05 04:35:56;;;;;;;3.08;0.77;;;3.30;99.90;;;;;;5052808;28;20041;-74
2023/03/05 04:38:22;;;;;;;0.25;0.17;;;3.20;99.90;;;;;;5020235;28;20038;-74
2023/03/05 04:40:47;;;;;;;1.95;0.20;;;3.20;99.90;;;;;;5052432;28;20512;-74
2023/03/05 04:43:13;;;;;;;1.98;0.50;;;3.30;99.90;;;;;;5021363;28;20038;-74
2023/03/05 04:45:40;;;;;;;2.28;0.52;;;3.30;99.90;;;;;;5018538;28;20049;-74
2023/03/05 04:48:06;;;;;;;1.70;0.38;;;3.30;99.90;;;;;;5053679;28;20042;-73
2023/03/05 04:50:32;;;;;;;0.80;0.30;;;3.30;99.90;;;;;;5051807;28;20509;-74
2023/03/05 04:52:59;;;;;;;0.20;0.10;;;3.30;99.90;;;;;;5020882;28;20045;-74
2023/03/05 04:55:25;;;;;;;0.13;0.13;;;3.30;99.90;;;;;;5018254;28;20073;-74
2023/03/05 04:57:50;;;;;;;0.38;0.20;;;3.30;99.90;;;;;;5003694;28;20080;-74
2023/03/05 05:00:17;;;;;;;0.47;0.25;;;3.30;99.90;;;;;;5000874;28;20091;-74
2023/03/05 05:02:44;;;;;;;1.45;0.20;;;3.30;99.90;;;;;;5006835;28;20495;-73
2023/03/05 05:05:14;;;;;;;1.80;0.20;;;3.30;99.90;;;;;;5051673;28;20140;-74
2023/03/05 05:07:40;;;;;;;1.40;0.40;;;3.30;99.90;;;;;;5055139;28;20172;-73
2023/03/05 05:10:06;;;;;;;0.80;0.25;;;3.30;99.90;;;;;;5010020;28;20064;-74
2023/03/05 05:12:33;;;;;;;1.35;0.20;;;3.30;99.90;;;;;;5020677;28;20502;-74
2023/03/05 05:14:59;;;;;;;2.05;0.35;;;3.30;99.90;;;;;;5051518;28;20064;-74
2023/03/05 05:17:25;;;;;;;1.90;0.40;;;3.30;99.90;;;;;;5020426;28;20049;-74
2023/03/05 05:19:51;;;;;;;0.85;0.20;;;3.30;99.90;;;;;;5050174;28;20045;-74
2023/03/05 05:22:17;;;;;;;0.10;0.10;;;3.30;99.90;;;;;;5021971;28;20041;-74
2023/03/05 05:24:42;;;;;;;0.20;0.17;;;3.30;99.90;;;;;;5054206;28;20045;-74
2023/03/05 05:27:08;;;;;;;0.52;0.25;;;3.20;99.90;;;;;;5051953;28;20433;-74
2023/03/05 05:29:34;;;;;;;0.25;0.10;;;3.20;99.90;;;;;;5019071;28;20068;-73
2023/03/05 05:31:59;;;;;;;0.85;0.32;;;3.20;99.90;;;;;;5051058;28;20049;-73
2023/03/05 05:34:26;;;;;;;0.73;0.22;;;3.20;99.90;;;;;;5019608;28;20053;-74
2023/03/05 05:36:52;;;;;;;0.25;0.10;;;3.20;99.90;;;;;;5019713;28;20030;-74
2023/03/05 05:39:18;;;;;;;1.52;0.25;;;3.20;99.90;;;;;;5054978;28;20045;-74
2023/03/05 05:41:44;;;;;;;0.52;0.17;;;3.10;99.90;;;;;;5053045;28;20115;-74
2023/03/05 05:44:09;;;;;;;0.08;0.05;;;3.10;99.90;;;;;;5021369;28;20060;-74
2023/03/05 05:46:35;;;;;;;1.95;0.40;;;3.10;99.90;;;;;;5034849;28;20164;-74
2023/03/05 05:49:01;;;;;;;0.30;0.17;;;3.10;99.90;;;;;;5004852;28;20434;-74
2023/03/05 05:51:26;;;;;;;0.22;0.10;;;3.00;99.90;;;;;;5048496;28;20037;-74
2023/03/05 05:53:52;;;;;;;0.10;0.10;;;3.10;99.90;;;;;;5055549;28;20037;-74
2023/03/05 05:56:18;;;;;;;0.30;0.20;;;3.10;99.90;;;;;;5023473;28;20049;-74
2023/03/05 05:58:46;;;;;;;0.55;0.10;;;3.00;99.90;;;;;;5056291;28;20064;-74
2023/03/05 06:01:26;;;;;;;0.70;0.40;;;3.10;99.90;;;;;;5041375;28;20053;-74
2023/03/05 06:03:52;;;;;;;0.35;0.30;;;3.10;99.90;;;;;;5054470;28;20042;-74
2023/03/05 06:06:20;;;;;;;1.02;0.50;;;3.10;99.90;;;;;;5023987;28;21563;-74
2023/03/05 06:08:46;;;;;;;0.38;0.10;;;3.10;99.90;;;;;;5057589;28;20287;-74
2023/03/05 06:11:13;;;;;;;1.48;0.13;;;3.10;99.90;;;;;;5024384;28;20079;-74
2023/03/05 06:13:39;;;;;;;0.57;0.20;;;3.10;99.90;;;;;;5007168;28;20045;-74
2023/03/05 06:16:10;;;;;;;0.30;0.20;;;3.10;99.90;;;;;;5040571;28;22261;-74
2023/03/05 06:18:35;;;;;;;0.15;0.15;;;3.10;99.90;;;;;;5021803;28;20124;-74
2023/03/05 06:21:06;;;;;;;2.80;0.25;;;3.10;99.90;;;;;;5023202;28;20128;-73
2023/03/05 06:23:32;;;;;;;0.30;0.20;;;3.10;99.90;;;;;;5008384;28;20771;-73
2023/03/05 06:25:59;;;;;;;0.25;0.20;;;3.10;99.90;;;;;;5022379;28;20041;-73
2023/03/05 06:28:25;;;;;;;0.17;0.10;;;3.10;99.90;;;;;;5055153;28;20060;-73
2023/03/05 06:30:59;;;;;;;0.60;0.20;;;3.10;99.90;;;;;;5040460;28;20057;-74
2023/03/05 06:33:25;;;;;;;0.20;0.10;;;3.10;99.90;;;;;;5055660;28;20040;-74
2023/03/05 06:35:50;;;;;;;1.33;0.17;;;3.10;99.90;;;;;;5021240;28;20038;-73
2023/03/05 06:38:16;;;;;;;1.00;0.30;;;3.10;99.90;;;;;;5023829;28;20096;-74
2023/03/05 06:40:41;;;;;;;0.30;0.20;;;3.10;99.90;;;;;;5023198;28;20503;-74
2023/03/05 06:43:07;;;;;;;0.50;0.13;;;3.10;99.90;;;;;;5010176;28;20084;-74
2023/03/05 06:45:33;;;;;;;0.73;0.30;;;3.00;99.90;;;;;;5056495;28;20064;-74
2023/03/05 06:47:58;;;;;;;0.13;0.10;;;3.10;99.90;;;;;;5024229;28;20534;-73
2023/03/05 06:50:24;;;;;;;0.65;0.20;;;3.10;99.90;;;;;;5055316;28;20101;-73
2023/03/05 06:52:50;;;;;;;0.88;0.22;;;3.00;99.90;;;;;;5037411;28;20541;-74
2023/03/05 06:55:17;;;;;;;0.80;0.20;;;3.00;99.90;;;;;;5021716;28;20041;-74
2023/03/05 06:57:42;;;;;;;0.70;0.17;;;3.00;99.90;;;;;;5057374;28;20048;-74
2023/03/05 07:00:10;;;;;;;0.80;0.20;;;3.00;99.90;;;;;;5020939;28;20041;-73
2023/03/05 07:02:37;;;;;;;0.57;0.20;;;3.00;99.90;;;;;;5024405;28;20083;-73
2023/03/05 07:05:03;;;;;;;0.10;0.08;;;3.00;99.90;;;;;;5017118;28;20052;-73
2023/03/05 07:07:29;;;;;;;0.32;0.28;;;3.00;99.90;;;;;;5020990;28;20379;-74
2023/03/05 07:09:55;;;;;;;0.98;0.20;;;3.00;99.90;;;;;;5007223;28;20095;-74
2023/03/05 07:12:21;;;;;;;0.80;0.38;;;3.00;99.90;;;;;;5024598;28;20041;-74
2023/03/05 07:14:46;;;;;;;0.40;0.20;;;3.10;99.90;;;;;;5050751;28;20844;-74
2023/03/05 07:17:14;;;;;;;0.65;0.20;;;3.10;99.90;;;;;;5005892;28;20042;-74
2023/03/05 07:19:39;;;;;;;3.65;0.50;;;3.10;99.90;;;;;;5021175;28;20068;-74
2023/03/05 07:22:06;;;;;;;0.28;0.15;;;3.10;99.90;;;;;;5023125;28;20487;-74
2023/03/05 07:24:31;;;;;;;2.30;0.30;;;3.10;99.90;;;;;;5013258;28;20119;-74
2023/03/05 07:26:58;;;;;;;0.20;0.10;;;3.10;99.90;;;;;;5055500;28;20037;-74
2023/03/05 07:29:25;;;;;;;3.42;0.40;;;3.10;99.90;;;;;;5053300;28;20054;-74
2023/03/05 07:31:51;;;;;;;0.25;0.13;;;3.20;99.90;;;;;;5023234;28;20116;-78
2023/03/05 07:34:16;;;;;;;0.38;0.20;;;3.20;99.90;;;;;;5036166;28;20127;-74
2023/03/05 07:36:42;;;;;;;0.82;0.40;;;3.20;99.90;;;;;;5019748;28;20041;-73
2023/03/05 07:39:10;;;;;;;1.42;0.40;;;3.20;99.90;;;;;;5020031;28;20344;-73
2023/03/05 07:41:35;;;;;;;0.08;0.08;;;3.20;99.90;;;;;;5055035;28;20499;-73
2023/03/05 07:44:02;;;;;;;3.17;0.52;;;3.30;99.90;;;;;;5017687;28;20048;-73
2023/03/05 07:46:31;;;;;;;1.38;0.30;;;3.40;99.90;;;;;;5022333;28;20036;-73
2023/03/05 07:48:57;;;;;;;0.60;0.22;;;3.30;99.90;;;;;;5034467;28;20033;-74
2023/03/05 07:51:23;;;;;;;0.63;0.20;;;3.40;99.90;;;;;;5005893;28;20068;-73
2023/03/05 07:53:51;;;;;;;1.92;0.52;;;3.40;99.90;;;;;;5058521;28;20042;-73
2023/03/05 07:56:24;;;;;;;0.75;0.28;;;3.50;99.90;;;;;;5054168;28;20057;-73
2023/03/05 07:58:50;;;;;;;1.25;0.30;;;3.50;99.90;;;;;;5022844;28;20041;-74
2023/03/05 08:01:15;;;;;;;0.90;0.50;;;3.50;99.90;;;;;;5021319;28;20395;-73
2023/03/05 08:03:42;;;;;;;0.25;0.15;;;3.60;99.90;;;;;;5043040;28;20034;-74
2023/03/05 08:06:08;;;;;;;0.63;0.35;;;3.60;99.90;;;;;;5008197;28;20135;-73
2023/03/05 08:08:35;;;;;;;1.98;0.43;;;3.60;99.90;;;;;;5018726;28;20038;-73
2023/03/05 08:11:18;;;;;;;0.70;0.30;;;3.70;99.90;;;;;;5053840;28;20080;-74
2023/03/05 08:13:44;;;;;;;3.35;0.98;;;3.70;99.90;;;;;;5023072;28;20398;-74
2023/03/05 08:16:16;;;;;;;3.20;0.47;;;3.60;99.90;;;;;;5016132;28;20045;-73
2023/03/05 08:18:42;;;;;;;3.72;0.60;;;3.70;99.90;;;;;;4996758;28;20075;-73
2023/03/05 08:21:20;;;;;;;2.88;0.25;;;3.80;99.90;;;;;;5005230;28;20116;-74
2023/03/05 08:23:46;;;;;;;2.03;0.50;;;3.80;99.90;;;;;;5035702;28;20558;-74
2023/03/05 08:26:17;;;;;;;1.17;0.20;;;3.80;99.90;;;;;;5052346;28;20116;-74
2023/03/05 08:28:44;;;;;;;2.00;0.43;;;3.90;99.90;;;;;;5006279;28;20050;-74
2023/03/05 08:31:12;;;;;;;0.30;0.30;;;3.90;99.90;;;;;;5054475;28;20091;-74
2023/03/05 08:33:38;;;;;;;0.90;0.40;;;4.00;99.90;;;;;;5005095;28;20041;-74
2023/03/05 08:36:04;;;;;;;0.10;0.10;;;4.10;99.90;;;;;;5054541;28;20845;-74
2023/03/05 08:38:29;;;;;;;2.72;0.40;;;4.10;99.90;;;;;;5019014;28;20103;-74
2023/03/05 08:40:55;;;;;;;5.45;0.43;;;4.10;99.90;;;;;;5020683;28;20551;-74
2023/03/05 08:43:20;;;;;;;0.75;0.20;;;4.20;99.90;;;;;;5039927;28;20471;-73
2023/03/05 08:45:48;;;;;;;1.55;0.10;;;4.20;99.90;;;;;;5024070;28;20029;-73
2023/03/05 08:48:14;;;;;;;1.73;0.40;;;4.20;99.90;;;;;;5020775;28;20053;-73
2023/03/05 08:50:40;;;;;;;1.25;0.30;;;4.20;99.90;;;;;;5054229;28;20049;-73
2023/03/05 08:53:05;;;;;;;0.82;0.30;;;4.20;99.90;;;;;;5055399;28;20040;-73
2023/03/05 08:55:31;;;;;;;0.70;0.32;;;4.20;99.90;;;;;;5020977;28;20059;-73
2023/03/05 08:57:57;;;;;;;0.20;0.20;;;4.20;99.90;;;;;;5019702;28;20064;-74
2023/03/05 09:00:22;;;;;;;1.15;0.40;;;4.20;99.90;;;;;;5022169;28;20135;-73
2023/03/05 09:02:48;;;;;;;4.97;0.35;;;4.20;99.90;;;;;;5001864;28;20171;-73
2023/03/05 09:05:14;;;;;;;2.35;1.48;;;4.20;99.90;;;;;;5021296;28;20068;-74
2023/03/05 09:07:40;;;;;;;0.25;0.25;;;4.30;99.90;;;;;;5021711;28;20038;-73
2023/03/05 09:10:09;;;;;;;0.10;0.10;;;4.30;99.90;;;;;;5001546;28;20045;-74
2023/03/05 09:12:34;;;;;;;1.52;0.28;;;4.30;99.90;;;;;;5012852;28;20045;-73
2023/03/05 09:15:00;;;;;;;0.50;0.30;;;4.40;99.90;;;;;;5015465;28;20037;-73
2023/03/05 09:17:25;;;;;;;0.88;0.20;;;4.40;99.90;;;;;;5011170;28;20077;-74
2023/03/05 09:19:51;;;;;;;0.57;0.25;;;4.40;99.90;;;;;;5066429;28;20204;-73
2023/03/05 09:22:16;;;;;;;1.45;0.30;;;4.50;99.90;;;;;;5015022;28;20036;-73
2023/03/05 09:24:42;;;;;;;3.53;0.20;;;4.50;99.90;;;;;;4997334;28;20176;-74
2023/03/05 09:27:08;;;;;;;1.48;0.20;;;4.50;99.90;;;;;;5046412;28;20068;-73
2023/03/05 09:29:34;;;;;;;0.75;0.32;;;4.60;99.90;;;;;;5037386;28;20052;-74
2023/03/05 09:31:59;;;;;;;0.52;0.10;;;4.60;99.90;;;;;;5037661;28;20065;-74
2023/03/05 09:34:25;;;;;;;4.38;0.45;;;4.70;99.90;;;;;;5050566;28;20107;-74
2023/03/05 09:36:50;;;;;;;0.88;0.50;;;4.70;99.90;;;;;;5021804;28;20022;-74
2023/03/05 09:39:16;;;;;;;0.68;0.10;;;4.70;99.90;;;;;;5027027;28;20041;-74
2023/03/05 09:42:22;;;;;;;0.10;0.10;;;4.70;99.90;;;;;;5000556;28;20053;-74
2023/03/05 09:45:11;;;;;;;0.43;0.20;;;4.80;99.90;;;;;;5008132;28;20057;-74
2023/03/05 09:47:44;;;;;;;1.02;0.20;;;4.90;99.90;;;;;;5027385;28;20034;-74
2023/03/05 09:50:30;;;;;;;2.65;0.20;;;4.90;99.90;;;;;;5028351;28;20041;-74
2023/03/05 09:53:02;;;;;;;0.20;0.17;;;5.00;99.90;;;;;;5028589;28;20072;-74
2023/03/05 09:55:41;;;;;;;0.20;0.20;;;5.10;99.90;;;;;;5062292;28;20033;-74
2023/03/05 09:58:17;;;;;;;0.45;0.28;;;5.10;99.90;;;;;;5025173;28;20048;-79
2023/03/05 10:00:44;;;;;;;;;;;5.10;99.90;;;;;;5024552;28;20045;-74
2023/03/05 10:03:27;;;;;;;0.68;0.10;;;5.20;99.90;;;;;;5040183;28;19921;-74
2023/03/05 10:06:18;;;;;;;0.43;0.20;;;5.20;99.90;;;;;;5006179;28;20038;-73
2023/03/05 10:08:57;;;;;;;1.08;0.40;;;5.30;99.90;;;;;;5026714;28;20041;-73
2023/03/05 10:12:02;;;;;;;0.10;0.10;;;5.30;99.90;;;;;;5051167;28;20090;-73
2023/03/05 10:14:33;;;;;;;0.10;0.00;;;5.40;99.90;;;;;;5025880;28;20506;-73
2023/03/05 10:17:20;;;;;;;0.40;0.22;;;5.40;99.90;;;;;;5043489;28;20178;-73
2023/03/05 10:20:18;;;;;;;0.63;0.10;;;5.40;99.90;;;;;;5051338;28;20391;-73
2023/03/05 10:23:03;;;;;;;0.10;0.10;;;5.30;99.90;;;;;;5007187;28;20204;-73
2023/03/05 10:25:50;;;;;;;0.20;0.03;;;5.00;99.90;;;;;;5053105;28;20038;-73
2023/03/05 10:28:24;;;;;;;2.17;0.20;;;4.70;99.90;;;;;;5023387;28;20414;-73
2023/03/05 10:31:29;;;;;;;2.03;0.20;;;4.60;99.90;;;;;;5054070;28;20486;-73
2023/03/05 10:34:11;;;;;;;0.20;0.10;;;4.50;99.90;;;;;;5022252;28;20033;-73
2023/03/05 10:36:45;;;;;;;0.00;0.00;;;4.50;99.90;;;;;;5036966;28;20053;-73
2023/03/05 10:39:55;;;;;;;0.85;0.20;;;4.50;99.90;;;;;;5055191;28;20048;-73
2023/03/05 10:42:55;;;;;;;4.00;0.20;;;4.60;99.90;;;;;;5005823;28;20053;-73
2023/03/05 10:45:26;;;;;;;0.17;0.13;;;4.60;99.90;;;;;;5026931;28;20116;-73
2023/03/05 10:48:03;;;;;;;0.32;0.20;;;4.70;99.90;;;;;;5059129;28;20064;-73
2023/03/05 10:50:52;;;;;;;1.35;0.20;;;4.80;99.90;;;;;;5020069;28;20084;-73
2023/03/05 10:53:31;;;;;;;2.80;0.20;;;4.80;99.90;;;;;;5034076;28;20450;-73
2023/03/05 10:56:04;;;;;;;2.13;0.10;;;4.90;99.90;;;;;;5021751;28;20041;-73
2023/03/05 10:58:29;;;;;;;0.95;0.17;;;4.80;99.90;;;;;;5021363;28;20560;-73
2023/03/05 11:01:03;;;;;;;0.03;0.03;;;4.80;99.90;;;;;;5055534;28;20033;-73
2023/03/05 11:03:52;;;;;;;0.22;0.10;;;4.70;99.90;;;;;;5054339;28;20061;-73
2023/03/05 11:06:30;;;;;;;1.45;0.40;;;4.70;99.90;;;;;;5054478;28;20037;-73
2023/03/05 11:09:23;;;;;;;2.00;0.10;;;4.60;99.90;;;;;;5022580;28;20032;-73
2023/03/05 11:12:07;;;;;;;2.15;0.20;;;4.70;99.90;;;;;;5038391;28;20125;-73
2023/03/05 11:14:35;;;;;;;0.40;0.20;;;4.70;99.90;;;;;;5021476;28;20494;-73
2023/03/05 11:17:03;;;;;;;1.17;0.40;;;4.70;99.90;;;;;;5049113;28;20045;-73
2023/03/05 11:19:35;;;;;;;0.52;0.20;;;4.80;99.90;;;;;;5048936;28;20518;-73
2023/03/05 11:22:19;;;;;;;0.82;0.30;;;4.80;99.90;;;;;;5038523;28;20087;-74
2023/03/05 11:25:15;;;;;;;0.60;0.10;;;4.80;99.90;;;;;;5052703;28;20463;-73
2023/03/05 11:27:50;;;;;;;1.85;0.10;;;4.90;99.90;;;;;;5022179;28;20037;-73
2023/03/05 11:30:27;;;;;;;;;;;4.90;99.90;;;;;;5031885;28;20103;-73
2023/03/05 11:33:19;;;;;;;0.30;0.10;;;5.10;99.90;;;;;;5034780;28;19921;-73
2023/03/05 11:35:46;;;;;;;1.45;0.17;;;5.10;99.90;;;;;;5051373;28;20049;-73
2023/03/05 11:38:24;;;;;;;0.22;0.13;;;5.20;99.90;;;;;;5027826;28;20371;-73
2023/03/05 11:40:52;;;;;;;2.92;0.35;;;5.30;99.90;;;;;;5044753;28;20129;-73
2023/03/05 11:43:21;;;;;;;0.68;0.15;;;5.40;99.90;;;;;;5029542;28;20509;-73
2023/03/05 11:45:50;;;;;;;0.45;0.10;;;5.50;99.90;;;;;;5061513;28;20473;-73
2023/03/05 11:48:23;;;;;;;0.50;0.32;;;5.70;99.90;;;;;;5026365;28;20390;-73
2023/03/05 11:50:54;;;;;;;0.13;0.13;;;5.80;99.90;;;;;;5041545;28;20041;-73
2023/03/05 11:53:28;;;;;;;2.78;0.40;;;5.90;99.90;;;;;;5017288;28;20051;-73
2023/03/05 11:56:23;;;;;;;1.95;0.47;;;6.00;99.90;;;;;;5027943;28;20046;-73
2023/03/05 11:59:03;;;;;;;0.22;0.17;;;6.00;99.90;;;;;;5026377;28;20539;-73
2023/03/05 12:01:34;;;;;;;1.13;0.30;;;5.90;99.90;;;;;;5028199;28;20275;-73
2023/03/05 12:04:00;;;;;;;1.33;0.25;;;6.00;99.90;;;;;;5062661;28;20352;-73
2023/03/05 12:06:39;;;;;;;0.52;0.10;;;6.00;99.90;;;;;;5061992;28;20135;-73
2023/03/05 12:09:33;;;;;;;1.75;0.22;;;6.10;99.90;;;;;;5028045;28;20076;-73
2023/03/05 12:12:24;;;;;;;0.10;0.10;;;6.10;99.90;;;;;;5029088;28;20045;-73
2023/03/05 12:15:01;;;;;;;0.10;0.10;;;6.10;99.90;;;;;;5044499;28;20482;-73
2023/03/05 12:17:56;;;;;;;0.68;0.17;;;6.00;99.90;;;;;;5044726;28;20045;-73
2023/03/05 12:20:43;;;;;;;0.70;0.35;;;6.00;99.90;;;;;;5028539;28;20037;-73
2023/03/05 12:23:18;;;;;;;0.50;0.20;;;5.90;99.90;;;;;;5027902;28;20573;-73
2023/03/05 12:25:56;;;;;;;0.20;0.10;;;5.90;99.90;;;;;;5043613;28;20501;-73
2023/03/05 12:28:28;;;;;;;2.28;0.47;;;5.90;99.90;;;;;;5028457;28;20266;-74
2023/03/05 12:30:57;;;;;;;2.50;0.20;;;5.90;99.90;;;;;;5029535;28;20048;-73
2023/03/05 12:33:30;;;;;;;4.22;0.52;;;5.90;99.90;;;;;;5010901;28;20045;-73
2023/03/05 12:36:18;;;;;;;1.30;0.30;;;6.00;99.90;;;;;;5061296;28;20037;-73
2023/03/05 12:38:46;;;;;;;3.67;0.35;;;6.00;99.90;;;;;;5060097;28;20091;-73
2023/03/05 12:41:21;;;;;;;0.25;0.10;;;6.10;99.90;;;;;;5043934;28;20288;-73
2023/03/05 12:44:06;;;;;;;0.13;0.10;;;6.10;99.90;;;;;;5044343;28;20037;-73
2023/03/05 12:46:37;;;;;;;1.30;0.20;;;6.10;99.90;;;;;;5010562;28;20045;-73
2023/03/05 12:49:19;;;;;;;0.57;0.20;;;6.10;99.90;;;;;;5028482;28;20295;-73
2023/03/05 12:51:46;;;;;;;0.98;0.20;;;6.10;99.90;;;;;;5060592;28;20041;-73
2023/03/05 12:54:24;;;;;;;0.88;0.28;;;6.10;99.90;;;;;;5027318;28;20120;-73
2023/03/05 12:56:51;;;;;;;0.55;0.20;;;6.10;99.90;;;;;;5044479;28;20037;-73
2023/03/05 12:59:20;;;;;;;0.47;0.20;;;6.10;99.90;;;;;;5061689;28;20092;-73
2023/03/05 13:02:18;;;;;;;0.68;0.08;;;6.20;99.90;;;;;;5060540;28;20052;-73
2023/03/05 13:04:45;;;;;;;0.22;0.10;;;6.30;99.90;;;;;;5061142;28;20451;-73
2023/03/05 13:07:16;;;;;;;0.43;0.10;;;6.40;99.90;;;;;;5026725;28;20501;-73
2023/03/05 13:09:51;;;;;;;0.17;0.17;;;6.40;99.90;;;;;;5060544;28;20067;-73